Moscow, Tennessee
Current Conditions -  °F | °C
As of 1:50 PM on Friday 21 Nov 2014 (Local Time) from KOLV Reporting Station
Overcast Overcast  
Wind Chill: 54°   Ceiling: 6500
Heat Index: 54°   Visibility: 8mi
Dew Point: 43°   Wind: 6mph
Humidity: 67%   Direction: 100°E
Pressure: 30.29"   Gusts: NA
Location:  35.06°N, 89.4°W
Report Text: KOLV 211950Z 10005KT 8SM BKN065 OVC085 12/06 A3029
Loading
Personal Weather Stations






























Interactive Weather Map New forecast layout! Learn more

10-Day Weather Forecast

Advertisements
Track Severe Weather on mobile